Xunwu, China
Current Conditions -  °F | °C
As of 12:00 PM on Wednesday 22 Oct 2014 (Local Time) from ZGOW Reporting Station
Broken Clouds Broken Clouds  
Wind Chill: 82°   Ceiling: 5000
Heat Index: 85°   Visibility: 5mi
Dew Point: 68°   Wind: 9mph
Humidity: 62%   Direction: 20°NNE
Pressure: 30"   Gusts: NA
Location:  24.95°N, 115.65°E
Report Text: ZGOW 220400Z 02004MPS 8000 BKN050 28/20 Q1016 NOSIG
Loading
Personal Weather Stations






























Interactive Weather Map New forecast layout! Learn more

10-Day Weather Forecast

Advertisements
Track Severe Weather on mobile